createdAt,value
2024-01-29T00:02:25.475Z,4.45
2024-01-29T00:04:52.808Z,4.53
2024-01-29T00:07:20.052Z,5.85
2024-01-29T00:09:47.109Z,7.03
2024-01-29T00:12:14.059Z,4.82
2024-01-29T00:14:41.004Z,5.22
2024-01-29T00:17:08.891Z,5.53
2024-01-29T00:19:35.877Z,4.55
2024-01-29T00:22:03.188Z,9.48
2024-01-29T00:24:30.004Z,3.63
2024-01-29T00:26:56.889Z,6.38
2024-01-29T00:29:23.668Z,5.47
2024-01-29T00:31:52.455Z,5.22
2024-01-29T00:34:19.533Z,4.35
2024-01-29T00:36:46.354Z,5.28
2024-01-29T00:39:14.598Z,4.50
2024-01-29T00:41:41.523Z,7.13
2024-01-29T00:44:08.749Z,6.82
2024-01-29T00:46:36.048Z,6.05
2024-01-29T00:49:03.008Z,3.63
2024-01-29T00:51:29.890Z,4.10
2024-01-29T00:53:56.799Z,4.50
2024-01-29T00:56:23.787Z,5.32
2024-01-29T00:58:50.719Z,2.83
2024-01-29T01:01:20.874Z,3.83
2024-01-29T01:03:48.425Z,3.60
2024-01-29T01:06:15.753Z,3.47
2024-01-29T01:08:42.631Z,3.85
2024-01-29T01:11:09.398Z,7.07
2024-01-29T01:13:36.345Z,3.22
2024-01-29T01:16:03.277Z,7.43
2024-01-29T01:18:30.818Z,3.63
2024-01-29T01:20:57.701Z,6.80
2024-01-29T01:23:24.658Z,5.55
2024-01-29T01:25:51.541Z,4.45
2024-01-29T01:28:19.110Z,4.55
2024-01-29T01:30:46.033Z,3.58
2024-01-29T01:33:12.937Z,2.03
2024-01-29T01:35:39.873Z,3.33
2024-01-29T01:38:06.967Z,10.10
2024-01-29T01:40:33.824Z,5.07
2024-01-29T01:43:00.919Z,7.80
2024-01-29T01:45:30.220Z,7.97
2024-01-29T01:47:58.625Z,3.17
2024-01-29T01:50:25.670Z,2.33
2024-01-29T01:52:52.611Z,7.00
2024-01-29T01:55:19.417Z,6.93
2024-01-29T01:57:49.012Z,6.90
2024-01-29T02:00:16.799Z,3.75
2024-01-29T02:02:43.764Z,4.95
2024-01-29T02:05:10.858Z,6.10
2024-01-29T02:07:38.004Z,6.63
2024-01-29T02:10:06.133Z,2.08
2024-01-29T02:12:33.161Z,5.47
2024-01-29T02:15:00.261Z,3.05
2024-01-29T02:17:27.202Z,5.07
2024-01-29T02:19:54.170Z,2.83
2024-01-29T02:22:23.757Z,4.80
2024-01-29T02:24:50.539Z,4.22
2024-01-29T02:27:17.523Z,7.78
2024-01-29T02:29:44.463Z,3.95
2024-01-29T02:32:11.591Z,4.60
2024-01-29T02:34:38.586Z,2.97
2024-01-29T02:37:05.728Z,3.30
2024-01-29T02:39:43.634Z,4.13
2024-01-29T02:42:10.653Z,5.90
2024-01-29T02:44:37.517Z,1.98
2024-01-29T02:47:04.528Z,6.10
2024-01-29T02:49:31.513Z,4.97
2024-01-29T02:51:58.486Z,4.93
2024-01-29T02:54:25.560Z,4.53
2024-01-29T02:56:52.657Z,3.72
2024-01-29T02:59:20.500Z,6.53
2024-01-29T03:01:47.341Z,4.75
2024-01-29T03:04:14.205Z,3.20
2024-01-29T03:06:41.027Z,5.25
2024-01-29T03:09:07.912Z,3.00
2024-01-29T03:11:37.655Z,4.90
2024-01-29T03:14:04.475Z,6.20
2024-01-29T03:16:31.371Z,3.22
2024-01-29T03:18:58.299Z,6.78
2024-01-29T03:21:25.675Z,6.07
2024-01-29T03:23:52.485Z,2.90
2024-01-29T03:26:19.248Z,3.45
2024-01-29T03:28:46.288Z,7.13
2024-01-29T03:31:13.513Z,4.13
2024-01-29T03:33:40.860Z,4.95
2024-01-29T03:36:08.516Z,2.97
2024-01-29T03:38:35.786Z,6.68
2024-01-29T03:41:02.559Z,4.05
2024-01-29T03:43:29.388Z,7.63
2024-01-29T03:45:56.290Z,3.22
2024-01-29T03:48:23.736Z,3.05
2024-01-29T03:50:50.642Z,8.65
2024-01-29T03:53:17.468Z,4.13
2024-01-29T03:55:44.238Z,3.97
2024-01-29T03:58:10.951Z,2.78
2024-01-29T04:00:41.106Z,7.43
2024-01-29T04:03:08.374Z,3.30
2024-01-29T04:05:35.207Z,6.00
2024-01-29T04:08:08.803Z,4.70
2024-01-29T04:10:35.603Z,3.95
2024-01-29T04:13:02.582Z,3.50
2024-01-29T04:15:30.204Z,5.32
2024-01-29T04:17:57.186Z,4.57
2024-01-29T04:20:24.895Z,5.13
2024-01-29T04:22:51.749Z,5.75
2024-01-29T04:25:18.582Z,3.33
2024-01-29T04:27:47.620Z,6.13
2024-01-29T04:30:14.634Z,4.13
2024-01-29T04:32:41.621Z,5.78
2024-01-29T04:35:08.638Z,2.80
2024-01-29T04:37:35.358Z,2.08
2024-01-29T04:40:05.427Z,4.18
2024-01-29T04:42:32.323Z,3.35
2024-01-29T04:44:59.526Z,3.80
2024-01-29T04:47:27.599Z,7.32
2024-01-29T04:49:58.263Z,7.05
2024-01-29T04:52:24.975Z,4.28
2024-01-29T04:54:51.923Z,7.93
2024-01-29T04:57:18.878Z,6.30
2024-01-29T04:59:46.129Z,2.15
2024-01-29T05:02:13.000Z,5.82
2024-01-29T05:04:39.899Z,10.32
2024-01-29T05:07:08.593Z,3.70
2024-01-29T05:09:36.160Z,3.58
2024-01-29T05:12:03.248Z,9.43
2024-01-29T05:14:30.053Z,4.65
2024-01-29T05:16:56.864Z,6.65
2024-01-29T05:19:24.090Z,3.38
2024-01-29T05:21:51.676Z,6.80
2024-01-29T05:24:18.611Z,1.67
2024-01-29T05:26:45.392Z,4.63
2024-01-29T05:29:12.294Z,3.65
2024-01-29T05:31:39.173Z,4.28
2024-01-29T05:34:06.122Z,3.65
2024-01-29T05:36:33.002Z,6.25
2024-01-29T05:38:59.766Z,5.30
2024-01-29T05:41:28.248Z,6.88
2024-01-29T05:43:56.174Z,5.28
2024-01-29T05:46:23.709Z,6.60
2024-01-29T05:48:51.058Z,2.70
2024-01-29T05:51:20.124Z,5.55
2024-01-29T05:53:47.034Z,6.18
2024-01-29T05:56:14.502Z,5.28
2024-01-29T05:58:45.950Z,4.10
2024-01-29T06:01:14.312Z,2.53
2024-01-29T06:03:41.326Z,2.13
2024-01-29T06:06:08.715Z,2.35
2024-01-29T06:08:35.630Z,2.38
2024-01-29T06:11:02.520Z,2.92
2024-01-29T06:13:29.280Z,3.65
2024-01-29T06:15:56.112Z,5.22
2024-01-29T06:18:24.372Z,5.22
2024-01-29T06:20:57.776Z,4.57
2024-01-29T06:23:24.838Z,5.25
2024-01-29T06:25:51.704Z,12.18
2024-01-29T06:28:18.776Z,4.07
2024-01-29T06:30:45.661Z,3.38
2024-01-29T06:33:13.849Z,4.10
2024-01-29T06:35:40.782Z,4.45
2024-01-29T06:38:07.719Z,6.35
2024-01-29T06:40:34.659Z,4.50
2024-01-29T06:43:01.668Z,10.43
2024-01-29T06:45:30.119Z,6.30
2024-01-29T06:48:00.542Z,1.80
2024-01-29T06:50:28.459Z,5.53
2024-01-29T06:52:55.210Z,6.45
2024-01-29T06:55:24.606Z,4.88
2024-01-29T06:57:51.649Z,7.05
2024-01-29T07:00:18.791Z,5.93
2024-01-29T07:02:48.835Z,3.25
2024-01-29T07:05:17.475Z,4.68
2024-01-29T07:07:44.743Z,4.63
2024-01-29T07:10:11.724Z,7.13
2024-01-29T07:12:38.703Z,3.45
2024-01-29T07:15:06.196Z,9.95
2024-01-29T07:17:33.008Z,5.25
2024-01-29T07:20:00.146Z,3.88
2024-01-29T07:22:27.369Z,3.72
2024-01-29T07:24:54.185Z,7.53
2024-01-29T07:27:20.991Z,4.25
2024-01-29T07:29:47.775Z,9.60
2024-01-29T07:32:17.100Z,6.90
2024-01-29T07:34:44.099Z,6.85
2024-01-29T07:37:13.203Z,4.18
2024-01-29T07:39:40.088Z,4.05
2024-01-29T07:42:07.135Z,5.28
2024-01-29T07:44:34.095Z,4.97
2024-01-29T07:47:04.025Z,7.00
2024-01-29T07:49:33.267Z,7.53
2024-01-29T07:54:29.556Z,3.50
2024-01-29T07:56:56.288Z,5.05
2024-01-29T07:59:23.176Z,6.25
2024-01-29T08:01:50.485Z,9.07
2024-01-29T08:04:18.425Z,7.13
2024-01-29T08:06:45.336Z,4.85
2024-01-29T08:09:12.220Z,7.88
2024-01-29T08:11:39.286Z,7.20
2024-01-29T08:14:12.043Z,6.57
2024-01-29T08:16:38.757Z,8.07
2024-01-29T08:19:05.791Z,4.85
2024-01-29T08:21:34.242Z,8.90
2024-01-29T08:24:01.096Z,4.40
2024-01-29T08:26:34.161Z,9.50
2024-01-29T08:29:02.243Z,6.32
2024-01-29T08:31:37.628Z,7.60
2024-01-29T08:34:05.987Z,9.98
2024-01-29T08:36:32.993Z,5.28
2024-01-29T08:38:59.780Z,9.32
2024-01-29T08:41:26.675Z,8.18
2024-01-29T08:43:53.411Z,6.10
2024-01-29T08:46:20.103Z,8.95
2024-01-29T08:48:46.862Z,7.65
2024-01-29T08:51:13.850Z,10.75
2024-01-29T08:53:46.651Z,6.50
2024-01-29T08:56:14.032Z,9.38
2024-01-29T08:58:40.849Z,12.70
2024-01-29T09:01:07.749Z,16.38
2024-01-29T09:03:34.841Z,20.70
2024-01-29T09:06:02.013Z,12.20
2024-01-29T09:08:29.409Z,9.40
2024-01-29T09:11:02.152Z,7.75
2024-01-29T09:13:29.031Z,8.77
2024-01-29T09:15:55.848Z,14.25
2024-01-29T09:18:28.270Z,9.20
2024-01-29T09:20:56.868Z,13.98
2024-01-29T09:23:23.857Z,12.68
2024-01-29T09:25:50.583Z,8.07
2024-01-29T09:28:17.516Z,13.23
2024-01-29T09:30:47.269Z,14.35
2024-01-29T09:33:29.026Z,10.20
2024-01-29T09:35:56.013Z,13.07
2024-01-29T09:38:25.524Z,14.52
2024-01-29T09:40:52.445Z,15.57
2024-01-29T09:43:22.387Z,13.88
2024-01-29T09:45:54.848Z,11.05
2024-01-29T09:48:22.814Z,10.00
2024-01-29T09:50:51.753Z,14.32
2024-01-29T09:53:27.986Z,21.90
2024-01-29T09:55:54.848Z,13.95
2024-01-29T09:58:24.287Z,12.65
2024-01-29T10:00:52.662Z,14.52
2024-01-29T10:03:31.163Z,21.10
2024-01-29T10:05:58.832Z,11.05
2024-01-29T10:08:26.439Z,16.60
2024-01-29T10:10:56.433Z,14.30
2024-01-29T10:13:27.995Z,16.27
2024-01-29T10:15:57.738Z,16.17
2024-01-29T10:18:28.322Z,14.00
2024-01-29T10:21:04.315Z,13.80
2024-01-29T10:23:32.270Z,12.27
2024-01-29T10:26:01.282Z,15.57
2024-01-29T10:28:28.721Z,17.83
2024-01-29T10:30:57.142Z,11.20
2024-01-29T10:33:26.159Z,19.45
2024-01-29T10:35:53.598Z,16.73
2024-01-29T10:38:26.177Z,11.15
2024-01-29T10:40:57.347Z,17.98
2024-01-29T10:43:28.781Z,18.35
2024-01-29T10:45:55.798Z,12.73
2024-01-29T10:48:30.772Z,16.88
2024-01-29T10:50:58.301Z,12.07
2024-01-29T10:53:25.754Z,20.38
2024-01-29T10:55:53.896Z,26.95
2024-01-29T10:58:21.280Z,17.55
2024-01-29T11:00:58.075Z,20.23
2024-01-29T11:03:28.473Z,15.52
2024-01-29T11:06:09.644Z,18.42
2024-01-29T11:08:43.305Z,20.65
2024-01-29T11:11:13.209Z,18.98
2024-01-29T11:13:40.905Z,19.20
2024-01-29T11:16:08.357Z,20.00
2024-01-29T11:18:37.144Z,20.60
2024-01-29T11:21:04.371Z,14.30
2024-01-29T11:23:32.110Z,20.98
2024-01-29T11:26:13.001Z,15.70
2024-01-29T11:28:43.269Z,17.70
2024-01-29T11:31:13.201Z,22.33
2024-01-29T11:33:58.044Z,19.58
2024-01-29T11:39:03.586Z,20.63
2024-01-29T11:41:30.662Z,24.08
2024-01-29T11:43:58.608Z,19.23
2024-01-29T11:46:28.301Z,12.18
2024-01-29T11:49:01.908Z,19.67
2024-01-29T11:51:29.223Z,19.58
2024-01-29T11:53:56.920Z,16.92
2024-01-29T11:56:23.738Z,17.90
2024-01-29T11:59:12.728Z,23.67
2024-01-29T12:01:42.061Z,19.77
2024-01-29T12:04:11.377Z,22.02
2024-01-29T12:06:39.448Z,20.23
2024-01-29T12:09:10.709Z,22.67
2024-01-29T12:11:37.909Z,24.17
2024-01-29T12:14:05.451Z,21.05
2024-01-29T12:16:32.862Z,24.02
2024-01-29T12:19:01.108Z,22.15
2024-01-29T12:21:28.560Z,21.30
2024-01-29T12:23:56.819Z,24.27
2024-01-29T12:26:29.745Z,15.30
2024-01-29T12:28:57.667Z,26.60
2024-01-29T12:31:27.164Z,25.13
2024-01-29T12:33:56.220Z,25.67
2024-01-29T12:36:26.044Z,24.48
2024-01-29T12:38:59.935Z,21.20
2024-01-29T12:41:43.217Z,18.00
2024-01-29T12:44:11.652Z,20.90
2024-01-29T12:46:39.188Z,21.60
2024-01-29T12:49:07.056Z,19.83
2024-01-29T12:51:34.169Z,25.08
2024-01-29T12:54:01.077Z,24.48
2024-01-29T12:56:41.200Z,30.42
2024-01-29T12:59:08.479Z,28.58
2024-01-29T13:01:35.972Z,24.45
2024-01-29T13:04:03.084Z,23.00
2024-01-29T13:06:30.032Z,24.30
2024-01-29T13:08:57.014Z,28.95
2024-01-29T13:11:23.836Z,30.33
2024-01-29T13:13:50.760Z,32.47
2024-01-29T13:16:17.776Z,23.65
2024-01-29T13:18:45.004Z,24.20
2024-01-29T13:21:11.929Z,24.48
2024-01-29T13:23:39.401Z,30.25
2024-01-29T13:29:03.990Z,21.35
2024-01-29T13:31:30.702Z,26.20
2024-01-29T13:33:57.535Z,28.27
2024-01-29T13:36:25.043Z,29.30
2024-01-29T13:38:51.807Z,22.45
2024-01-29T13:41:18.517Z,22.60
2024-01-29T13:43:45.299Z,34.50
2024-01-29T13:46:20.594Z,28.65
2024-01-29T13:48:47.588Z,23.45
2024-01-29T13:51:19.698Z,31.33
2024-01-29T13:53:46.751Z,24.15
2024-01-29T13:56:14.038Z,27.05
2024-01-29T13:58:41.072Z,33.47
2024-01-29T14:01:08.059Z,27.15
2024-01-29T14:03:35.189Z,29.83
2024-01-29T14:06:13.259Z,24.90
2024-01-29T14:08:40.233Z,18.60
2024-01-29T14:11:07.057Z,20.05
2024-01-29T14:13:35.132Z,22.05
2024-01-29T14:16:05.734Z,21.88
2024-01-29T14:18:35.322Z,20.67
2024-01-29T14:21:05.510Z,24.17
2024-01-29T14:23:32.470Z,25.35
2024-01-29T14:25:59.283Z,19.10
2024-01-29T14:28:26.123Z,25.42
2024-01-29T14:30:53.313Z,26.67
2024-01-29T14:33:20.274Z,24.67
2024-01-29T14:35:47.220Z,24.52
2024-01-29T14:38:14.107Z,25.88
2024-01-29T14:40:40.888Z,22.27
2024-01-29T14:43:10.133Z,22.73
2024-01-29T14:45:43.356Z,24.92
2024-01-29T14:48:12.101Z,20.30
2024-01-29T14:50:39.189Z,21.63
2024-01-29T14:53:06.135Z,20.65
2024-01-29T14:55:35.425Z,21.90
2024-01-29T14:58:02.306Z,17.45
2024-01-29T15:00:29.151Z,21.55
2024-01-29T15:02:56.161Z,32.78
2024-01-29T15:05:23.151Z,28.02
2024-01-29T15:07:50.708Z,21.25
2024-01-29T15:10:17.818Z,27.63
2024-01-29T15:12:44.811Z,18.60
2024-01-29T15:15:15.727Z,22.08
2024-01-29T15:17:42.756Z,30.50
2024-01-29T15:20:13.437Z,23.42
2024-01-29T15:22:40.496Z,17.17
2024-01-29T15:25:10.705Z,21.55
2024-01-29T15:27:37.810Z,25.63
2024-01-29T15:30:04.997Z,24.35
2024-01-29T15:32:32.214Z,26.67
2024-01-29T15:34:59.475Z,20.80
2024-01-29T15:37:26.608Z,29.17
2024-01-29T15:39:53.372Z,18.55
2024-01-29T15:42:20.283Z,26.20
2024-01-29T15:44:47.314Z,23.23
2024-01-29T15:47:14.519Z,23.00
2024-01-29T15:49:43.429Z,18.48
2024-01-29T15:52:12.117Z,23.48
2024-01-29T15:54:41.910Z,27.13
2024-01-29T15:57:08.858Z,22.50
2024-01-29T15:59:38.927Z,20.08
2024-01-29T16:02:09.799Z,23.25
2024-01-29T16:04:40.158Z,25.33
2024-01-29T16:07:07.925Z,28.75
2024-01-29T16:09:34.918Z,18.98
2024-01-29T16:12:01.851Z,23.70
2024-01-29T16:14:28.694Z,26.50
2024-01-29T16:16:55.689Z,23.85
2024-01-29T16:19:22.625Z,23.55
2024-01-29T16:21:50.792Z,20.63
2024-01-29T16:24:18.457Z,23.38
2024-01-29T16:26:45.428Z,21.55
2024-01-29T16:29:12.211Z,27.58
2024-01-29T16:31:44.874Z,22.67
2024-01-29T16:34:11.841Z,27.17
2024-01-29T16:36:38.784Z,29.17
2024-01-29T16:39:08.436Z,24.92
2024-01-29T16:41:37.852Z,21.23
2024-01-29T16:44:04.756Z,32.60
2024-01-29T16:46:43.584Z,24.95
2024-01-29T16:49:22.265Z,26.42
2024-01-29T16:51:49.084Z,26.35
2024-01-29T16:54:16.879Z,31.38
2024-01-29T16:56:45.837Z,29.35
2024-01-29T16:59:12.976Z,47.55
2024-01-29T17:01:40.084Z,42.03
2024-01-29T17:04:07.499Z,36.22
2024-01-29T17:06:35.317Z,44.50
2024-01-29T17:09:15.200Z,38.15
2024-01-29T17:11:43.910Z,48.38
2024-01-29T17:14:11.019Z,41.35
2024-01-29T17:16:40.518Z,52.50
2024-01-29T17:19:13.564Z,47.50
2024-01-29T17:21:40.462Z,38.70
2024-01-29T17:24:07.399Z,49.42
2024-01-29T17:26:34.971Z,45.67
2024-01-29T17:29:02.179Z,54.88
2024-01-29T17:31:31.577Z,52.55
2024-01-29T17:34:11.467Z,48.47
2024-01-29T17:36:43.005Z,48.03
2024-01-29T17:39:10.573Z,53.40
2024-01-29T17:41:38.398Z,48.08
2024-01-29T17:44:06.194Z,55.20
2024-01-29T17:46:33.367Z,41.85
2024-01-29T17:49:00.585Z,53.22
2024-01-29T17:51:27.656Z,49.58
2024-01-29T17:53:54.701Z,61.60
2024-01-29T17:56:21.675Z,45.03
2024-01-29T17:58:48.429Z,48.38
2024-01-29T18:01:15.743Z,59.05
2024-01-29T18:03:42.764Z,55.92
2024-01-29T18:06:09.709Z,46.22
2024-01-29T18:08:37.190Z,65.63
2024-01-29T18:11:15.362Z,53.55
2024-01-29T18:13:42.151Z,48.47
2024-01-29T18:16:09.409Z,44.70
2024-01-29T18:18:37.761Z,44.75
2024-01-29T18:21:04.886Z,50.42
2024-01-29T18:23:39.889Z,67.65
2024-01-29T18:26:06.641Z,50.75
2024-01-29T18:28:33.603Z,53.85
2024-01-29T18:31:00.426Z,63.53
2024-01-29T18:33:27.421Z,57.58
2024-01-29T18:35:54.383Z,54.65
2024-01-29T18:38:21.196Z,56.92
2024-01-29T18:40:48.024Z,57.35
2024-01-29T18:43:15.200Z,50.25
2024-01-29T18:45:42.282Z,55.67
2024-01-29T18:48:09.561Z,43.63
2024-01-29T18:50:36.402Z,54.55
2024-01-29T18:53:03.581Z,49.83
2024-01-29T18:55:30.290Z,52.97
2024-01-29T18:57:57.201Z,60.67
2024-01-29T19:00:24.413Z,52.92
2024-01-29T19:02:52.556Z,57.70
2024-01-29T19:05:19.664Z,65.65
2024-01-29T19:07:49.341Z,59.05
2024-01-29T19:10:16.698Z,56.22
2024-01-29T19:12:43.736Z,62.78
2024-01-29T19:15:10.663Z,57.22
2024-01-29T19:17:38.085Z,71.13
2024-01-29T19:20:05.604Z,64.22
2024-01-29T19:22:32.440Z,55.90
2024-01-29T19:25:01.810Z,59.17
2024-01-29T19:27:29.045Z,58.63
2024-01-29T19:29:55.925Z,67.60
2024-01-29T19:32:22.763Z,60.55
2024-01-29T19:34:50.454Z,66.13
2024-01-29T19:37:18.467Z,50.78
2024-01-29T19:39:45.733Z,54.70
2024-01-29T19:42:12.706Z,44.40
2024-01-29T19:44:41.845Z,56.42
2024-01-29T19:47:10.692Z,52.70
2024-01-29T19:49:38.190Z,50.35
2024-01-29T19:52:05.236Z,59.67
2024-01-29T19:54:32.320Z,48.08
2024-01-29T19:56:59.129Z,55.28
2024-01-29T19:59:25.906Z,56.45
2024-01-29T20:01:52.891Z,49.97
2024-01-29T20:04:20.056Z,58.78
2024-01-29T20:06:47.021Z,55.95
2024-01-29T20:09:13.865Z,54.45
2024-01-29T20:11:40.921Z,55.78
2024-01-29T20:14:08.283Z,66.05
2024-01-29T20:16:37.478Z,62.35
2024-01-29T20:19:04.670Z,65.13
2024-01-29T20:21:32.012Z,68.47
2024-01-29T20:23:59.084Z,73.53
2024-01-29T20:26:25.895Z,80.45
2024-01-29T20:28:57.502Z,63.60
2024-01-29T20:34:13.013Z,69.13
2024-01-29T20:36:42.108Z,72.07
2024-01-29T20:39:09.648Z,61.78
2024-01-29T20:41:46.857Z,68.80
2024-01-29T20:44:28.031Z,69.80
2024-01-29T20:46:54.948Z,64.57
2024-01-29T20:49:22.037Z,60.25
2024-01-29T20:51:49.292Z,62.35
2024-01-29T20:54:16.241Z,75.20
2024-01-29T20:56:43.462Z,69.95
2024-01-29T20:59:12.479Z,64.40
2024-01-29T21:01:39.922Z,61.30
2024-01-29T21:04:07.611Z,62.65
2024-01-29T21:06:34.540Z,73.82
2024-01-29T21:09:01.375Z,64.38
2024-01-29T21:11:29.194Z,63.85
2024-01-29T21:13:57.137Z,64.38
2024-01-29T21:16:26.938Z,69.70
2024-01-29T21:18:56.313Z,67.82
2024-01-29T21:21:24.931Z,72.82
2024-01-29T21:23:57.909Z,67.07
2024-01-29T21:26:28.813Z,68.85
2024-01-29T21:28:56.037Z,65.63
2024-01-29T21:31:23.121Z,71.68
2024-01-29T21:33:50.269Z,79.30
2024-01-29T21:36:18.818Z,71.10
2024-01-29T21:38:46.335Z,65.90
2024-01-29T21:41:13.427Z,71.80
2024-01-29T21:43:40.556Z,75.13
2024-01-29T21:46:07.705Z,68.60
2024-01-29T21:48:34.795Z,87.47
2024-01-29T21:51:02.319Z,69.82
2024-01-29T21:53:31.949Z,64.10
2024-01-29T21:55:59.613Z,81.97
2024-01-29T21:58:26.531Z,85.57
2024-01-29T22:00:58.147Z,84.50
2024-01-29T22:03:37.470Z,81.15
2024-01-29T22:06:04.592Z,86.00
2024-01-29T22:08:32.455Z,78.10
2024-01-29T22:10:59.259Z,77.10
2024-01-29T22:13:26.268Z,69.10
2024-01-29T22:15:53.341Z,75.60
2024-01-29T22:18:20.236Z,80.63
2024-01-29T22:20:47.041Z,73.32
2024-01-29T22:23:13.965Z,66.88
2024-01-29T22:25:41.003Z,63.90
2024-01-29T22:28:08.426Z,73.07
2024-01-29T22:30:35.961Z,78.50
2024-01-29T22:33:03.005Z,77.65
2024-01-29T22:35:29.972Z,73.80
2024-01-29T22:37:57.854Z,67.28
2024-01-29T22:40:25.510Z,55.72
2024-01-29T22:42:52.895Z,63.65
2024-01-29T22:45:20.096Z,61.67
2024-01-29T22:47:47.031Z,66.45
2024-01-29T22:50:15.318Z,55.25
2024-01-29T22:52:44.852Z,80.05
2024-01-29T22:55:12.874Z,79.47
2024-01-29T22:57:39.737Z,77.57
2024-01-29T23:00:17.445Z,82.07
2024-01-29T23:02:44.834Z,82.13
2024-01-29T23:05:14.726Z,76.60
2024-01-29T23:07:44.244Z,89.53
2024-01-29T23:10:11.010Z,74.70
2024-01-29T23:12:37.977Z,74.13
2024-01-29T23:15:05.390Z,79.22
2024-01-29T23:17:32.391Z,77.05
2024-01-29T23:19:59.337Z,63.80
2024-01-29T23:22:26.263Z,73.07
2024-01-29T23:24:53.180Z,67.05
2024-01-29T23:27:22.213Z,67.60
2024-01-29T23:29:50.152Z,71.43
2024-01-29T23:32:19.993Z,87.90
2024-01-29T23:34:47.168Z,61.85
2024-01-29T23:37:24.530Z,90.00
2024-01-29T23:39:51.555Z,100.03
2024-01-29T23:42:21.807Z,89.18
2024-01-29T23:44:49.167Z,83.30
2024-01-29T23:47:18.299Z,121.97
2024-01-29T23:49:45.321Z,70.72
2024-01-29T23:52:13.083Z,74.30
2024-01-29T23:54:40.103Z,78.93
2024-01-29T23:57:07.419Z,81.88
2024-01-29T23:59:34.268Z,88.82
